Time;durP1;ratioP1;P1;durP2;ratioP2;P2;SDS_P1;SDS_P2;PMS_P1;PMS_P2;Temp;Humidity;BMP_temperature;BMP_pressure;BME280_temperature;BME280_humidity;BME280_pressure;Samples;Min_cycle;Max_cycle;Signal;HPM_P1;HPM_P2
2021/06/07 00:02:00;;;;;;;7.68;5.60;;;;;;;15.81;72.12;98985.22;5018299;28;20048;-73
2021/06/07 00:04:27;;;;;;;9.32;5.28;;;;;;;15.78;72.58;98986.47;5051236;28;20044;-74
2021/06/07 00:06:54;;;;;;;14.43;5.35;;;;;;;15.74;72.93;98982.56;5068032;28;20044;-73
2021/06/07 00:09:20;;;;;;;15.73;6.38;;;;;;;15.77;72.66;98997.38;5034901;28;20040;-73
2021/06/07 00:11:49;;;;;;;13.13;6.85;;;;;;;15.75;72.80;98997.59;5053249;28;20044;-73
2021/06/07 00:14:17;;;;;;;11.82;6.30;;;;;;;15.75;72.95;98992.22;5053379;28;20055;-73
2021/06/07 00:16:44;;;;;;;12.02;6.32;;;;;;;15.75;72.91;98989.56;5069868;28;20048;-74
2021/06/07 00:19:14;;;;;;;13.88;6.75;;;;;;;15.78;72.69;99001.69;5036597;28;20131;-75
2021/06/07 00:21:40;;;;;;;8.85;5.55;;;;;;;15.79;72.78;98998.00;5071160;28;20427;-77
2021/06/07 00:24:07;;;;;;;8.43;5.68;;;;;;;15.78;72.68;98999.03;5071256;28;20706;-73
2021/06/07 00:26:33;;;;;;;8.27;5.57;;;;;;;15.78;72.71;98997.16;5069490;28;20048;-73
2021/06/07 00:28:59;;;;;;;8.50;5.28;;;;;;;15.80;72.74;98994.28;5036598;28;20040;-73
2021/06/07 00:31:25;;;;;;;7.90;5.53;;;;;;;15.80;72.61;98989.78;5036434;28;20079;-73
2021/06/07 00:33:52;;;;;;;9.10;4.97;;;;;;;15.80;72.52;98988.94;5036653;28;20040;-73
2021/06/07 00:36:22;;;;;;;13.07;5.03;;;;;;;15.82;72.73;98998.41;5019887;28;20102;-73
2021/06/07 00:38:49;;;;;;;8.63;4.88;;;;;;;15.81;72.85;98991.41;5053236;28;20052;-73
2021/06/07 00:41:16;;;;;;;7.97;4.88;;;;;;;15.79;72.95;98995.34;5069222;28;20048;-73
2021/06/07 00:43:42;;;;;;;11.05;5.25;;;;;;;15.76;73.14;98993.06;5052730;28;20040;-73
2021/06/07 00:46:08;;;;;;;8.15;5.53;;;;;;;15.74;73.25;98997.78;5053149;28;20063;-73
2021/06/07 00:48:35;;;;;;;7.95;5.45;;;;;;;15.69;73.48;99003.78;5052846;28;20381;-73
2021/06/07 00:51:08;;;;;;;8.60;5.28;;;;;;;15.66;73.57;98993.47;5052569;28;20063;-73
2021/06/07 00:53:35;;;;;;;7.68;6.10;;;;;;;15.62;73.74;98996.78;5052820;28;20516;-73
2021/06/07 00:56:04;;;;;;;8.77;5.60;;;;;;;15.63;74.04;98993.06;5052879;28;20048;-73
2021/06/07 00:58:33;;;;;;;11.27;6.63;;;;;;;15.35;74.29;98952.25;5086121;28;20040;-73
2021/06/07 01:01:02;;;;;;;10.52;6.60;;;;;;;15.52;74.51;98989.13;5069096;28;20036;-73
2021/06/07 01:03:28;;;;;;;12.27;6.63;;;;;;;15.62;74.67;99007.47;5070344;28;20076;-73
2021/06/07 01:05:55;;;;;;;10.50;6.55;;;;;;;15.60;74.37;99013.03;5052838;28;20048;-73
2021/06/07 01:08:22;;;;;;;12.60;6.13;;;;;;;15.58;74.59;99001.69;5069328;28;20134;-73
2021/06/07 01:10:49;;;;;;;11.55;6.28;;;;;;;15.63;74.60;98998.41;5070294;28;20044;-73
2021/06/07 01:13:15;;;;;;;13.07;7.15;;;;;;;15.63;74.86;99003.75;5052419;28;20131;-73
2021/06/07 01:15:45;;;;;;;13.40;7.65;;;;;;;15.63;74.82;99004.59;5052862;28;20157;-73
2021/06/07 01:18:12;;;;;;;15.48;7.15;;;;;;;15.67;74.45;99007.69;5053010;28;20071;-73
2021/06/07 01:20:38;;;;;;;12.50;7.32;;;;;;;15.66;74.48;99003.34;5052557;28;20045;-73
2021/06/07 01:23:04;;;;;;;14.18;8.48;;;;;;;15.69;74.68;98998.41;5052551;28;20048;-74
2021/06/07 01:25:35;;;;;;;13.48;8.38;;;;;;;15.71;74.75;98999.03;5052478;28;20041;-74
2021/06/07 01:28:03;;;;;;;15.52;9.07;;;;;;;15.71;74.49;98999.03;5069136;28;20516;-73
2021/06/07 01:30:34;;;;;;;18.08;10.52;;;;;;;15.77;74.66;98989.34;5068958;28;20056;-74
2021/06/07 01:33:00;;;;;;;18.15;11.20;;;;;;;15.80;74.34;98997.81;5068871;28;20542;-74
2021/06/07 01:35:27;;;;;;;17.40;10.93;;;;;;;15.85;74.00;98997.97;5035877;28;20068;-74
2021/06/07 01:37:54;;;;;;;19.52;12.05;;;;;;;15.91;74.03;98994.50;5052543;28;20044;-74
2021/06/07 01:40:24;;;;;;;18.45;12.15;;;;;;;15.96;73.86;98989.31;5035756;28;20412;-74
2021/06/07 01:42:50;;;;;;;20.13;12.18;;;;;;;16.02;73.85;98996.53;5052578;28;20051;-75
2021/06/07 01:45:20;;;;;;;18.88;13.38;;;;;;;16.04;73.67;98994.47;5035536;28;20044;-74
2021/06/07 01:47:46;;;;;;;19.77;13.60;;;;;;;16.09;73.30;99000.03;5052173;28;20063;-73
2021/06/07 01:50:13;;;;;;;18.88;12.93;;;;;;;16.12;73.25;98996.94;5054951;28;20052;-74
2021/06/07 01:52:43;;;;;;;18.80;13.18;;;;;;;16.15;73.22;98987.66;5039540;28;20090;-73
2021/06/07 01:55:12;;;;;;;20.65;12.95;;;;;;;16.19;72.88;98999.63;5056853;28;20136;-73
2021/06/07 01:57:40;;;;;;;19.15;12.73;;;;;;;16.21;72.78;98990.31;5072441;28;20059;-72
2021/06/07 02:00:09;;;;;;;19.60;12.85;;;;;;;16.22;72.85;98997.31;5055933;28;20568;-73
2021/06/07 02:02:36;;;;;;;19.70;12.97;;;;;;;16.23;72.67;98993.63;5055981;28;20040;-73
2021/06/07 02:05:03;;;;;;;22.52;13.30;;;;;;;16.33;72.51;98998.53;5039113;28;20410;-73
2021/06/07 02:07:29;;;;;;;19.08;14.30;;;;;;;16.41;72.44;99001.00;5072080;28;20085;-74
2021/06/07 02:09:55;;;;;;;21.67;14.88;;;;;;;16.50;72.31;99011.31;5022555;28;20044;-73
2021/06/07 02:12:21;;;;;;;23.30;15.02;;;;;;;16.63;71.93;99008.59;5072177;28;20124;-74
2021/06/07 02:14:47;;;;;;;24.98;16.00;;;;;;;16.73;71.56;99002.75;5038877;28;20496;-74
2021/06/07 02:17:13;;;;;;;24.00;16.00;;;;;;;16.80;70.99;98995.53;5072739;28;20405;-73
2021/06/07 02:19:39;;;;;;;24.58;15.90;;;;;;;16.88;70.83;99001.47;5038834;28;20052;-73
2021/06/07 02:22:05;;;;;;;25.65;17.80;;;;;;;16.90;70.61;98992.41;5071927;28;20040;-74
2021/06/07 02:24:30;;;;;;;25.83;17.55;;;;;;;16.95;70.57;99003.28;5055405;28;20101;-73
2021/06/07 02:26:56;;;;;;;25.88;17.88;;;;;;;16.93;70.94;98998.13;5055481;28;20533;-73
2021/06/07 02:29:22;;;;;;;23.73;17.63;;;;;;;16.92;70.61;98996.50;5038612;28;20040;-73
2021/06/07 02:31:48;;;;;;;25.83;17.83;;;;;;;16.94;70.45;98999.81;5038857;28;20512;-74
2021/06/07 02:34:14;;;;;;;32.17;19.20;;;;;;;16.94;70.30;99001.66;5072529;28;20037;-74
2021/06/07 02:36:43;;;;;;;26.90;19.02;;;;;;;16.90;70.49;98998.56;5038359;28;20148;-74
2021/06/07 02:39:10;;;;;;;30.90;20.63;;;;;;;16.92;70.53;99001.88;5055067;28;20090;-73
2021/06/07 02:41:38;;;;;;;28.52;18.52;;;;;;;16.93;70.36;98997.34;5071854;28;20051;-74
2021/06/07 02:44:05;;;;;;;29.33;21.10;;;;;;;16.93;70.44;99003.50;5055156;28;20129;-73
2021/06/07 02:46:31;;;;;;;33.22;21.40;;;;;;;16.95;70.44;99004.13;5071314;28;20044;-74
2021/06/07 02:48:57;;;;;;;30.35;22.35;;;;;;;16.95;70.33;99005.97;5054935;28;20041;-74
2021/06/07 02:51:22;;;;;;;25.70;18.98;;;;;;;16.97;70.40;99010.09;5038394;28;20127;-75
2021/06/07 02:53:49;;;;;;;29.55;19.67;;;;;;;16.99;70.10;99007.19;5038204;28;20593;-77
2021/06/07 02:56:15;;;;;;;29.25;19.63;;;;;;;17.03;70.21;99016.47;5072943;28;20055;-74
2021/06/07 02:58:41;;;;;;;27.20;20.30;;;;;;;17.03;70.15;99001.19;5054672;28;20044;-73
2021/06/07 03:01:11;;;;;;;29.48;19.23;;;;;;;17.12;69.82;99004.44;5038285;28;20048;-73
2021/06/07 03:03:37;;;;;;;33.17;20.98;;;;;;;17.08;69.70;98984.44;5054673;28;20044;-74
2021/06/07 03:06:04;;;;;;;29.65;20.20;;;;;;;17.26;69.35;99006.00;5054502;28;20040;-73
2021/06/07 03:08:34;;;;;;;29.05;20.02;;;;;;;17.40;69.04;99003.03;5037938;28;20071;-73
2021/06/07 03:11:03;;;;;;;28.38;19.52;;;;;;;17.48;68.60;99002.78;5072623;28;20044;-75
2021/06/07 03:13:29;;;;;;;23.25;17.60;;;;;;;17.59;68.06;99004.78;5054533;28;20059;-73
2021/06/07 03:15:57;;;;;;;29.88;17.75;;;;;;;17.65;67.67;99006.59;5021005;28;20044;-73
2021/06/07 03:18:23;;;;;;;24.08;16.55;;;;;;;17.68;67.39;99008.84;5054285;28;20150;-74
2021/06/07 03:20:49;;;;;;;22.80;15.63;;;;;;;17.66;67.21;99004.72;5071168;28;20404;-74
2021/06/07 03:23:17;;;;;;;18.20;13.50;;;;;;;17.65;67.07;99003.09;5037729;28;20051;-73
2021/06/07 03:25:45;;;;;;;27.00;13.20;;;;;;;17.65;67.04;99003.91;5054333;28;20133;-72
2021/06/07 03:28:12;;;;;;;20.25;11.88;;;;;;;17.65;66.71;99003.09;5053901;28;20071;-74
2021/06/07 03:30:39;;;;;;;16.33;11.15;;;;;;;17.54;66.40;98979.63;5070773;28;20052;-73
2021/06/07 03:33:06;;;;;;;12.93;9.82;;;;;;;17.66;66.25;98996.69;5070468;28;20056;-76
2021/06/07 03:35:32;;;;;;;17.60;8.93;;;;;;;17.68;65.63;98994.59;5070489;28;20131;-75
2021/06/07 03:37:58;;;;;;;13.60;8.98;;;;;;;17.75;65.67;99000.72;5053825;28;20135;-75
2021/06/07 03:40:30;;;;;;;11.85;7.75;;;;;;;17.81;65.38;99000.69;5053670;28;20508;-74
2021/06/07 03:42:56;;;;;;;14.80;9.70;;;;;;;17.86;65.23;99000.84;5053684;28;20405;-74
2021/06/07 03:45:22;;;;;;;19.65;10.48;;;;;;;17.94;65.29;98997.06;5036898;28;20464;-74
2021/06/07 03:47:49;;;;;;;16.55;9.73;;;;;;;18.03;64.88;99003.81;5053598;28;20155;-74
2021/06/07 03:50:17;;;;;;;16.02;9.55;;;;;;;18.12;64.50;99002.47;5053514;28;20420;-74
2021/06/07 03:52:44;;;;;;;13.18;8.32;;;;;;;18.17;64.43;98992.69;5053264;28;20048;-73
2021/06/07 03:55:11;;;;;;;13.90;8.45;;;;;;;18.31;64.00;99004.94;5053517;28;20075;-73
2021/06/07 03:57:37;;;;;;;13.95;8.20;;;;;;;18.43;63.45;99008.56;5070122;28;20051;-74
2021/06/07 04:00:06;;;;;;;12.98;8.05;;;;;;;18.44;63.26;98994.09;5069904;28;20044;-74
2021/06/07 04:02:39;;;;;;;12.05;7.57;;;;;;;18.63;62.85;99008.38;5071479;28;20091;-74
2021/06/07 04:05:06;;;;;;;16.77;8.73;;;;;;;18.77;62.24;99001.78;5070053;28;20049;-74
2021/06/07 04:07:34;;;;;;;12.13;8.27;;;;;;;18.93;62.02;99005.75;5069656;28;20048;-75
2021/06/07 04:10:01;;;;;;;12.55;8.25;;;;;;;19.05;61.75;99018.19;5053430;28;20039;-75
2021/06/07 04:12:28;;;;;;;10.77;7.47;;;;;;;19.19;63.49;99016.97;5069022;28;20071;-74
2021/06/07 04:14:55;;;;;;;14.98;8.35;;;;;;;19.31;62.29;99017.84;5036969;28;20051;-74
2021/06/07 04:17:21;;;;;;;18.73;7.85;;;;;;;19.40;61.50;99011.13;5053255;28;20055;-74
2021/06/07 04:19:47;;;;;;;12.73;6.75;;;;;;;19.53;61.58;99019.00;5069178;28;20060;-74
2021/06/07 04:22:14;;;;;;;109.15;19.35;;;;;;;19.76;61.65;99019.03;5053182;28;20041;-76
2021/06/07 04:24:42;;;;;;;65.70;14.15;;;;;;;20.01;60.46;99013.44;5052924;28;20044;-74
2021/06/07 04:27:09;;;;;;;18.83;8.48;;;;;;;20.23;59.01;99017.25;5053136;28;20075;-74
2021/06/07 04:29:35;;;;;;;40.80;10.10;;;;;;;20.37;58.77;99021.34;5068169;28;20512;-74
2021/06/07 04:32:01;;;;;;;37.42;10.30;;;;;;;20.46;58.71;99022.63;5071615;28;20073;-74
2021/06/07 04:34:27;;;;;;;25.23;9.05;;;;;;;20.50;58.36;99014.88;5072152;28;20069;-68
2021/06/07 04:36:53;;;;;;;15.20;6.97;;;;;;;20.40;58.00;99012.78;5072570;28;20043;-71
2021/06/07 04:39:19;;;;;;;21.05;7.53;;;;;;;20.33;58.46;99013.97;5089286;28;20064;-69
2021/06/07 04:41:44;;;;;;;11.20;6.60;;;;;;;20.25;58.26;99017.00;5055392;28;20059;-69
2021/06/07 04:44:10;;;;;;;11.50;6.70;;;;;;;20.14;58.45;99015.13;5055375;28;20519;-67
2021/06/07 04:46:37;;;;;;;15.50;6.45;;;;;;;20.12;58.91;99020.72;5089085;28;20044;-70
2021/06/07 04:49:03;;;;;;;11.88;6.57;;;;;;;20.15;58.50;99014.06;5072195;28;20054;-69
2021/06/07 04:51:28;;;;;;;15.00;6.15;;;;;;;20.09;58.42;98997.75;5054995;28;20052;-68
2021/06/07 04:53:54;;;;;;;14.48;6.40;;;;;;;20.30;58.45;99015.25;5072190;28;20385;-70
2021/06/07 04:56:20;;;;;;;16.35;6.95;;;;;;;20.38;58.52;99014.88;5072664;28;20036;-69
2021/06/07 04:58:46;;;;;;;11.40;6.32;;;;;;;20.37;57.89;99013.25;5055283;28;20503;-68
2021/06/07 05:01:16;;;;;;;13.02;6.55;;;;;;;20.34;58.31;99013.72;5071866;28;20048;-68
2021/06/07 05:03:42;;;;;;;12.50;6.85;;;;;;;20.41;58.33;99017.13;5055783;28;20040;-70
2021/06/07 05:06:07;;;;;;;14.35;6.32;;;;;;;20.50;58.02;99013.00;5089874;28;20051;-69
2021/06/07 05:08:34;;;;;;;13.35;6.22;;;;;;;20.64;57.76;99018.97;5055107;28;20040;-68
2021/06/07 05:11:00;;;;;;;9.68;6.43;;;;;;;20.86;56.89;99025.38;5088547;28;20066;-70
2021/06/07 05:13:27;;;;;;;14.50;6.10;;;;;;;21.00;56.87;99024.06;5055064;28;20086;-70
2021/06/07 05:15:54;;;;;;;7.72;5.63;;;;;;;21.13;56.34;99029.19;5072460;28;20415;-72
2021/06/07 05:18:20;;;;;;;13.82;5.85;;;;;;;21.16;56.19;99026.00;5089016;28;20073;-73
2021/06/07 05:20:46;;;;;;;9.13;4.90;;;;;;;21.18;56.37;99019.31;5071903;28;20063;-73
2021/06/07 05:23:13;;;;;;;10.60;4.80;;;;;;;21.20;56.17;99017.16;5053487;28;20051;-74
2021/06/07 05:25:40;;;;;;;10.70;4.78;;;;;;;21.21;55.94;99023.41;5049602;28;20052;-74
2021/06/07 05:28:09;;;;;;;6.18;4.30;;;;;;;21.26;55.61;99021.63;5071705;28;20040;-74
2021/06/07 05:30:36;;;;;;;9.82;3.58;;;;;;;21.31;54.62;99020.91;5085229;28;20120;-70
2021/06/07 05:33:03;;;;;;;6.63;3.50;;;;;;;21.33;54.68;99029.56;5088734;28;20063;-70
2021/06/07 05:35:33;;;;;;;10.10;4.03;;;;;;;21.34;54.60;99017.72;5092931;28;20043;-68
2021/06/07 05:37:59;;;;;;;;;;;;;;;21.35;54.59;99013.97;5055364;28;20045;-71
2021/06/07 05:40:27;;;;;;;6.13;3.35;;;;;;;21.37;54.94;99011.84;5038779;28;19966;-73
2021/06/07 05:42:54;;;;;;;3.80;2.60;;;;;;;21.40;54.20;99011.34;5022523;28;20117;-71
2021/06/07 05:45:21;;;;;;;6.28;2.72;;;;;;;21.44;54.38;99015.19;5055917;28;20040;-72
2021/06/07 05:47:49;;;;;;;10.90;3.65;;;;;;;21.47;54.61;99020.94;5055132;28;20052;-71
2021/06/07 05:50:20;;;;;;;6.25;2.88;;;;;;;21.50;54.05;99015.06;5055629;28;20155;-70
2021/06/07 05:52:47;;;;;;;5.13;2.85;;;;;;;21.44;53.93;98999.81;5060414;28;20047;-71
2021/06/07 05:55:19;;;;;;;5.45;2.72;;;;;;;21.60;54.12;99014.44;5095640;28;20526;-70
2021/06/07 05:57:46;;;;;;;4.07;3.00;;;;;;;21.67;54.04;99018.59;5095250;28;20237;-69
2021/06/07 06:00:15;;;;;;;7.28;3.60;;;;;;;21.73;53.60;99018.69;5112537;28;20039;-70
2021/06/07 06:02:41;;;;;;;8.20;2.97;;;;;;;21.80;53.61;99025.63;5078279;28;20047;-69
2021/06/07 06:05:08;;;;;;;12.30;3.65;;;;;;;21.89;53.98;99018.72;5078552;28;20068;-70
2021/06/07 06:07:33;;;;;;;11.27;3.17;;;;;;;22.03;52.95;99025.47;5095329;28;20074;-69
2021/06/07 06:09:59;;;;;;;7.55;2.88;;;;;;;22.16;53.09;99016.16;5078103;28;20066;-71
2021/06/07 06:12:26;;;;;;;17.10;3.13;;;;;;;22.29;52.46;99011.25;5095128;28;20479;-72
2021/06/07 06:14:52;;;;;;;15.48;3.30;;;;;;;22.36;52.26;99014.59;5110839;28;20046;-72
2021/06/07 06:17:18;;;;;;;9.18;2.90;;;;;;;22.50;52.20;99010.47;5058956;28;20478;-71
2021/06/07 06:19:44;;;;;;;9.40;3.05;;;;;;;22.63;52.14;99012.03;5075822;28;20126;-70
2021/06/07 06:22:09;;;;;;;7.68;2.60;;;;;;;22.78;51.63;99010.34;5092802;28;20051;-72
2021/06/07 06:24:35;;;;;;;6.75;2.70;;;;;;;22.88;50.99;98998.81;5059794;28;20056;-70
2021/06/07 06:27:01;;;;;;;7.50;2.80;;;;;;;23.21;50.58;99013.03;5052294;28;20079;-69
2021/06/07 06:29:27;;;;;;;7.35;3.00;;;;;;;23.45;50.12;99010.06;5036416;28;20044;-70
2021/06/07 06:31:53;;;;;;;6.20;3.08;;;;;;;23.70;49.41;99010.28;5021612;28;20133;-69
2021/06/07 06:34:19;;;;;;;7.25;2.72;;;;;;;23.87;49.18;99005.53;5062759;28;20560;-71
2021/06/07 06:36:45;;;;;;;6.13;2.78;;;;;;;24.07;48.48;99008.44;5040366;28;20044;-72
2021/06/07 06:39:11;;;;;;;5.65;2.50;;;;;;;24.25;47.37;99005.31;5074521;28;20048;-70
2021/06/07 06:41:37;;;;;;;5.05;2.13;;;;;;;24.35;47.24;99008.94;5074587;28;20127;-77
2021/06/07 06:44:04;;;;;;;3.10;2.00;;;;;;;24.47;47.03;99014.16;5041002;28;20054;-68
2021/06/07 06:46:32;;;;;;;4.32;1.85;;;;;;;24.70;46.14;99014.59;5059897;28;20040;-67
2021/06/07 06:48:58;;;;;;;2.25;1.90;;;;;;;24.84;45.78;99013.03;5076826;28;20139;-67
2021/06/07 06:51:24;;;;;;;5.38;2.35;;;;;;;25.04;45.40;99003.31;5058642;28;20048;-68
2021/06/07 06:53:51;;;;;;;6.38;2.30;;;;;;;25.11;45.44;99004.69;5053360;28;20134;-68
2021/06/07 06:56:17;;;;;;;7.65;2.53;;;;;;;25.19;45.15;99012.34;5079407;28;20124;-68
2021/06/07 06:58:43;;;;;;;6.30;2.63;;;;;;;25.16;45.15;99014.78;5078104;28;20094;-69
2021/06/07 07:01:09;;;;;;;7.47;2.53;;;;;;;25.15;45.19;99016.69;5043249;28;20093;-72
2021/06/07 07:03:37;;;;;;;6.63;2.47;;;;;;;25.21;44.97;99023.78;5036394;28;20055;-73
2021/06/07 07:06:03;;;;;;;5.75;2.67;;;;;;;25.25;44.69;99013.19;5052603;28;20044;-73
2021/06/07 07:08:30;;;;;;;8.55;2.53;;;;;;;25.27;44.19;99020.00;5035379;28;20038;-71
2021/06/07 07:10:56;;;;;;;6.93;2.35;;;;;;;25.29;44.36;99014.28;5035705;28;20406;-72
2021/06/07 07:13:22;;;;;;;5.25;1.90;;;;;;;25.43;43.66;99018.16;5063083;28;20779;-72
2021/06/07 07:15:48;;;;;;;3.17;2.00;;;;;;;25.62;43.00;99011.09;5079274;28;20082;-71
2021/06/07 07:18:14;;;;;;;4.55;2.17;;;;;;;25.88;42.71;99018.19;5068293;28;20048;-74
2021/06/07 07:20:44;;;;;;;5.53;2.25;;;;;;;26.22;41.75;99003.81;5050580;28;20150;-72
2021/06/07 07:23:10;;;;;;;3.65;1.85;;;;;;;26.67;40.66;99021.16;5063211;28;20044;-72
2021/06/07 07:25:36;;;;;;;3.38;1.77;;;;;;;27.28;39.48;99017.13;5075106;28;20046;-71
2021/06/07 07:28:07;;;;;;;7.65;2.20;;;;;;;27.85;38.45;99020.84;5044116;28;20571;-74
2021/06/07 07:30:34;;;;;;;6.75;2.58;;;;;;;28.64;37.05;99023.19;5061516;28;20048;-71
2021/06/07 07:33:02;;;;;;;5.25;2.58;;;;;;;29.50;35.72;99020.22;5057340;28;20578;-70
2021/06/07 07:35:28;;;;;;;4.93;1.80;;;;;;;29.73;34.95;99015.78;5063582;28;20040;-70
2021/06/07 07:37:55;;;;;;;5.47;1.90;;;;;;;29.89;33.87;99012.53;5075456;28;20135;-69
2021/06/07 07:40:23;;;;;;;7.05;1.77;;;;;;;30.91;32.52;99024.97;5060439;28;20041;-71
2021/06/07 07:42:51;;;;;;;5.68;2.20;;;;;;;31.16;31.82;99007.16;5077631;28;20046;-68
2021/06/07 07:45:19;;;;;;;5.35;1.83;;;;;;;30.98;31.74;99011.63;5060290;28;20099;-67
2021/06/07 07:47:45;;;;;;;5.85;1.98;;;;;;;32.06;30.29;99012.53;5049151;28;20044;-68
2021/06/07 07:50:16;;;;;;;3.83;1.35;;;;;;;32.03;29.82;99022.19;5061355;28;20044;-68
2021/06/07 07:52:42;;;;;;;4.68;1.67;;;;;;;31.82;30.25;99010.06;5075276;28;20560;-69
2021/06/07 07:55:13;;;;;;;6.22;1.60;;;;;;;32.01;29.68;99018.97;5079158;28;20126;-69
2021/06/07 07:57:41;;;;;;;2.83;1.73;;;;;;;34.00;27.14;98998.94;5063795;28;20044;-68
2021/06/07 08:00:10;;;;;;;7.78;2.42;;;;;;;36.24;24.80;99006.53;5063777;28;20169;-69
2021/06/07 08:02:39;;;;;;;6.10;1.52;;;;;;;37.82;23.16;99012.59;5064380;28;20068;-68
2021/06/07 08:05:07;;;;;;;3.35;1.58;;;;;;;37.33;23.04;99005.53;5065105;28;20054;-68
2021/06/07 08:07:33;;;;;;;8.02;1.88;;;;;;;38.09;22.19;98995.13;5077508;28;20535;-68
2021/06/07 08:10:00;;;;;;;3.72;1.70;;;;;;;38.25;22.03;99009.91;5063319;28;20056;-68
2021/06/07 08:12:27;;;;;;;7.40;1.95;;;;;;;38.02;22.33;99003.28;5062824;28;20397;-69
2021/06/07 08:14:53;;;;;;;2.80;1.80;;;;;;;37.66;22.47;99005.34;5078069;28;20447;-69
2021/06/07 08:17:19;;;;;;;6.20;1.95;;;;;;;36.51;23.99;98992.91;5046340;28;20044;-68
2021/06/07 08:19:45;;;;;;;7.97;1.95;;;;;;;35.24;25.00;98990.06;5063038;28;20036;-68
2021/06/07 08:22:12;;;;;;;5.35;1.83;;;;;;;35.54;25.06;98996.38;5077215;28;20044;-69
2021/06/07 08:24:38;;;;;;;7.70;2.17;;;;;;;34.69;25.52;98989.38;5077755;28;20377;-67
2021/06/07 08:27:05;;;;;;;8.18;2.40;;;;;;;35.41;25.22;98984.44;5078330;28;20073;-69
2021/06/07 08:29:31;;;;;;;8.05;2.63;;;;;;;37.57;23.00;98993.56;5066658;28;20111;-69
2021/06/07 08:31:58;;;;;;;6.55;2.05;;;;;;;39.46;21.34;98995.94;5086676;28;20056;-69
2021/06/07 08:34:24;;;;;;;3.35;2.40;;;;;;;38.80;20.85;98985.97;5090424;28;20031;-68
2021/06/07 08:36:49;;;;;;;4.75;1.65;;;;;;;39.87;19.32;98986.13;5064349;28;20043;-66
2021/06/07 08:39:15;;;;;;;5.03;1.70;;;;;;;39.71;19.81;98982.56;5045433;28;20416;-67
2021/06/07 08:41:42;;;;;;;2.20;1.70;;;;;;;40.72;18.76;98971.84;5061133;28;20046;-69
2021/06/07 08:44:08;;;;;;;3.10;1.73;;;;;;;40.43;19.26;98981.66;5062975;28;20041;-67
2021/06/07 08:46:33;;;;;;;8.40;1.90;;;;;;;38.65;20.76;98980.06;5076612;28;20096;-68
2021/06/07 08:48:59;;;;;;;8.02;2.17;;;;;;;37.39;22.41;98981.16;5035248;28;20047;-67
2021/06/07 08:51:25;;;;;;;7.90;2.20;;;;;;;37.47;22.20;98978.25;5052697;28;20397;-71
2021/06/07 08:53:51;;;;;;;5.63;2.80;;;;;;;39.32;20.33;98976.13;5068622;28;20123;-68
2021/06/07 08:56:18;;;;;;;17.95;3.67;;;;;;;40.92;18.36;98978.94;5078447;28;20040;-67
2021/06/07 08:58:46;;;;;;;7.85;3.15;;;;;;;42.17;17.95;98976.31;5061210;28;20032;-68
2021/06/07 09:01:13;;;;;;;4.23;2.30;;;;;;;43.33;16.55;98971.78;5029641;28;20143;-68
2021/06/07 09:03:40;;;;;;;2.38;1.70;;;;;;;43.98;15.51;98964.09;5078596;28;20828;-68
2021/06/07 09:06:06;;;;;;;3.45;1.85;;;;;;;45.28;14.65;98957.81;5077682;28;20102;-67
2021/06/07 09:08:35;;;;;;;5.43;1.75;;;;;;;45.30;14.71;98961.03;5045595;28;20415;-67
2021/06/07 09:11:13;;;;;;;8.10;1.60;;;;;;;43.30;15.92;98955.78;5045909;28;20052;-68
2021/06/07 09:13:39;;;;;;;5.50;2.30;;;;;;;40.71;18.26;98961.88;5068315;28;20078;-67
2021/06/07 09:16:06;;;;;;;3.05;1.60;;;;;;;40.05;18.81;98954.69;5077361;28;20063;-67
2021/06/07 09:18:37;;;;;;;5.28;1.75;;;;;;;38.59;20.10;98953.75;5078024;28;20039;-68
2021/06/07 09:21:03;;;;;;;1.98;1.50;;;;;;;38.05;20.61;98944.31;5061481;28;20047;-68
2021/06/07 09:23:42;;;;;;;7.10;1.70;;;;;;;39.34;19.45;98934.06;5062369;28;20036;-67
2021/06/07 09:26:25;;;;;;;8.43;2.20;;;;;;;41.55;17.87;98947.25;5078540;28;20131;-67
2021/06/07 09:28:54;;;;;;;5.00;2.00;;;;;;;42.95;16.81;98939.53;5078521;28;20541;-68
2021/06/07 09:31:28;;;;;;;4.47;1.75;;;;;;;43.12;16.41;98935.28;5077759;28;20117;-68
2021/06/07 09:33:54;;;;;;;5.75;1.65;;;;;;;41.18;17.59;98932.38;5062753;28;20078;-68
2021/06/07 09:36:27;;;;;;;7.80;1.80;;;;;;;39.20;19.17;98922.66;5060193;28;20064;-68
2021/06/07 09:39:13;;;;;;;5.78;1.80;;;;;;;39.90;18.48;98924.97;5077871;28;20028;-68
2021/06/07 09:41:42;;;;;;;9.63;2.75;;;;;;;41.65;17.70;98932.66;5072335;28;20131;-67
2021/06/07 09:44:08;;;;;;;9.85;2.30;;;;;;;43.03;16.23;98913.25;5068438;28;20055;-67
2021/06/07 09:46:33;;;;;;;3.58;1.70;;;;;;;42.73;15.97;98918.25;5051908;28;20045;-67
2021/06/07 09:49:11;;;;;;;5.15;1.92;;;;;;;41.84;16.89;98919.72;5032998;28;20052;-68
2021/06/07 09:51:39;;;;;;;9.93;2.20;;;;;;;42.81;16.28;98910.72;5064261;28;20040;-67
2021/06/07 09:54:05;;;;;;;3.28;1.75;;;;;;;43.06;16.26;98911.66;5047688;28;20052;-67
2021/06/07 09:56:32;;;;;;;6.25;1.55;;;;;;;43.23;15.83;98906.22;5048745;28;20076;-68
2021/06/07 09:58:58;;;;;;;5.10;1.73;;;;;;;44.39;15.05;98912.22;5048049;28;20048;-68
2021/06/07 10:01:33;;;;;;;5.78;1.70;;;;;;;45.24;13.86;98898.16;5049145;28;20170;-67
2021/06/07 10:04:03;;;;;;;2.35;1.40;;;;;;;46.50;12.76;98893.88;5051469;28;20098;-67
2021/06/07 10:06:33;;;;;;;2.45;1.50;;;;;;;47.86;12.12;98897.19;5052276;28;20044;-68
2021/06/07 10:09:00;;;;;;;4.57;1.42;;;;;;;48.06;11.33;98897.31;5068314;28;20378;-67
2021/06/07 10:11:32;;;;;;;2.47;1.00;;;;;;;48.63;11.67;98886.78;5054404;28;20052;-68
2021/06/07 10:14:09;;;;;;;2.92;1.20;;;;;;;46.78;12.26;98871.91;5072108;28;20122;-67
2021/06/07 10:17:02;;;;;;;1.90;1.02;;;;;;;43.78;14.45;98890.06;5055106;28;20043;-68
2021/06/07 10:22:11;;;;;;;3.72;1.55;;;;;;;38.86;19.50;98876.22;5056665;28;20044;-67
2021/06/07 10:24:37;;;;;;;3.67;1.77;;;;;;;36.83;21.32;98881.31;5071464;28;20040;-67
2021/06/07 10:27:04;;;;;;;2.85;1.50;;;;;;;35.08;23.09;98875.84;5054785;28;20040;-66
2021/06/07 10:29:35;;;;;;;5.55;1.40;;;;;;;33.88;24.65;98883.03;5071296;28;20102;-67
2021/06/07 10:32:17;;;;;;;5.80;1.90;;;;;;;32.40;26.61;98889.88;5054578;28;20064;-66
2021/06/07 10:34:49;;;;;;;4.65;1.63;;;;;;;31.59;27.58;98879.38;5070900;28;20045;-66
2021/06/07 10:37:16;;;;;;;5.25;1.80;;;;;;;30.91;28.53;98879.59;5071262;28;20044;-66
2021/06/07 10:39:42;;;;;;;6.55;2.10;;;;;;;30.12;30.22;98888.34;5071273;28;20068;-65
2021/06/07 10:42:07;;;;;;;3.22;1.58;;;;;;;29.28;31.74;98885.91;5038038;28;20052;-67
2021/06/07 10:44:41;;;;;;;4.00;2.13;;;;;;;28.45;33.25;98874.72;5054861;28;20052;-65
2021/06/07 10:47:15;;;;;;;4.60;2.22;;;;;;;27.62;35.78;98911.59;5071522;28;20135;-66
2021/06/07 10:49:48;;;;;;;7.78;2.05;;;;;;;26.54;37.94;98896.44;5071388;28;20101;-66
2021/06/07 10:52:18;;;;;;;4.72;2.22;;;;;;;25.79;39.61;98909.13;5054727;28;20136;-65
2021/06/07 10:54:56;;;;;;;4.72;2.25;;;;;;;25.04;42.22;98914.47;5038410;28;20093;-66
2021/06/07 10:57:22;;;;;;;4.05;2.45;;;;;;;24.55;44.04;98913.22;5054955;28;20404;-67
2021/06/07 10:59:50;;;;;;;3.95;2.50;;;;;;;24.35;44.65;98907.69;5054277;28;20052;-66
2021/06/07 11:02:18;;;;;;;2.47;2.15;;;;;;;24.14;44.81;98912.19;5038030;28;20101;-66
2021/06/07 11:04:44;;;;;;;6.03;2.40;;;;;;;23.79;46.21;98906.50;5071230;28;20438;-65
2021/06/07 11:07:18;;;;;;;5.72;2.30;;;;;;;23.37;49.19;98912.94;5070735;28;20040;-65
2021/06/07 11:10:10;;;;;;;6.47;2.60;;;;;;;23.20;51.31;98913.84;5054297;28;20404;-65
2021/06/07 11:12:37;;;;;;;7.80;2.30;;;;;;;22.86;51.62;98915.09;5070435;28;20036;-67
2021/06/07 11:15:19;;;;;;;2.47;2.13;;;;;;;22.27;52.47;98898.94;5070542;28;20044;-66
2021/06/07 11:17:45;;;;;;;5.75;2.65;;;;;;;22.08;53.99;98890.28;5061074;28;20119;-66
2021/06/07 11:20:12;;;;;;;5.80;2.78;;;;;;;21.80;57.26;98895.03;5045107;28;20128;-70
2021/06/07 11:23:05;;;;;;;8.07;2.90;;;;;;;21.63;56.89;98887.72;5054136;28;20064;-66
2021/06/07 11:25:52;;;;;;;5.93;2.92;;;;;;;21.71;57.88;98889.22;5058785;28;20047;-66
2021/06/07 11:28:28;;;;;;;3.75;2.38;;;;;;;21.79;54.98;98905.00;5063993;28;20094;-66
2021/06/07 11:30:55;;;;;;;3.28;2.40;;;;;;;21.93;55.20;98900.91;5078767;28;20052;-67
2021/06/07 11:33:21;;;;;;;3.05;2.55;;;;;;;22.25;54.97;98896.47;5077604;28;20127;-69
2021/06/07 11:35:47;;;;;;;4.00;2.10;;;;;;;22.57;53.43;98904.75;5065021;28;20146;-67